Time,TemperatureF,DewpointF,PressureIn,WindDirection,WindDirectionDegrees,WindSpeedMPH,WindSpeedGustMPH,Humidity,HourlyPrecipIn,Conditions,Clouds,dailyrainin,SoftwareType,DateUTC
2013-02-18 00:03:00,16.0,8.0,30.20,SSW,203,4.0,6.0,72,0.00,,,0.00,weatherlink.com 1.10,2013-02-18 05:03:00,
2013-02-18 00:18:00,16.3,8.0,30.20,SSW,210,2.0,7.0,70,0.00,,,0.00,weatherlink.com 1.10,2013-02-18 05:18:00,
2013-02-18 00:33:00,16.3,8.0,30.20,SSW,200,3.0,6.0,70,0.00,,,0.00,weatherlink.com 1.10,2013-02-18 05:33:00,
2013-02-18 00:48:00,16.2,8.0,30.20,South,172,3.0,5.0,71,0.00,,,0.00,weatherlink.com 1.10,2013-02-18 05:48:00,
2013-02-18 01:03:00,16.4,9.0,30.21,SSW,208,2.0,8.0,71,0.00,,,0.00,weatherlink.com 1.10,2013-02-18 06:03:00,
2013-02-18 01:18:00,16.6,9.0,30.21,SW,230,2.0,8.0,71,0.00,,,0.00,weatherlink.com 1.10,2013-02-18 06:18:00,
2013-02-18 01:33:00,16.9,9.0,30.21,SW,231,4.0,7.0,71,0.00,,,0.00,weatherlink.com 1.10,2013-02-18 06:33:00,
2013-02-18 01:48:00,17.2,9.0,30.20,SW,231,2.0,5.0,70,0.00,,,0.00,weatherlink.com 1.10,2013-02-18 06:48:00,
2013-02-18 02:03:00,17.2,9.0,30.20,SSE,167,3.0,7.0,70,0.00,,,0.00,weatherlink.com 1.10,2013-02-18 07:03:00,
2013-02-18 02:18:00,17.4,9.0,30.20,SSW,207,1.0,7.0,70,0.00,,,0.00,weatherlink.com 1.10,2013-02-18 07:18:00,
2013-02-18 02:33:00,17.4,9.0,30.19,SW,215,2.0,10.0,69,0.00,,,0.00,weatherlink.com 1.10,2013-02-18 07:33:00,
2013-02-18 02:48:00,17.5,9.0,30.20,WSW,242,3.0,7.0,70,0.00,,,0.00,weatherlink.com 1.10,2013-02-18 07:48:00,
2013-02-18 03:03:00,17.5,9.0,30.19,South,177,3.0,8.0,70,0.00,,,0.00,weatherlink.com 1.10,2013-02-18 08:03:00,
2013-02-18 03:19:00,17.6,10.0,30.18,WSW,245,0.0,8.0,71,0.00,,,0.00,weatherlink.com 1.10,2013-02-18 08:19:00,
2013-02-18 03:34:00,17.8,10.0,30.18,SE,146,1.0,10.0,71,0.00,,,0.00,weatherlink.com 1.10,2013-02-18 08:34:00,
2013-02-18 03:49:00,17.9,10.0,30.18,SSW,208,2.0,12.0,71,0.00,,,0.00,weatherlink.com 1.10,2013-02-18 08:49:00,
2013-02-18 04:04:00,18.0,10.0,30.17,SSW,211,2.0,9.0,71,0.00,,,0.00,weatherlink.com 1.10,2013-02-18 09:04:00,
2013-02-18 04:19:00,18.1,10.0,30.16,West,263,2.0,6.0,71,0.00,,,0.00,weatherlink.com 1.10,2013-02-18 09:19:00,
2013-02-18 04:34:00,18.3,10.0,30.15,SW,221,2.0,8.0,70,0.00,,,0.00,weatherlink.com 1.10,2013-02-18 09:34:00,
2013-02-18 04:49:00,18.6,10.0,30.15,South,179,4.0,11.0,70,0.00,,,0.00,weatherlink.com 1.10,2013-02-18 09:49:00,
2013-02-18 05:04:00,18.9,11.0,30.14,SSE,160,6.0,10.0,71,0.00,,,0.00,weatherlink.com 1.10,2013-02-18 10:04:00,
2013-02-18 05:19:00,19.0,11.0,30.13,SSW,205,4.0,9.0,71,0.00,,,0.00,weatherlink.com 1.10,2013-02-18 10:19:00,
2013-02-18 05:34:00,19.3,11.0,30.13,SE,140,2.0,14.0,71,0.00,,,0.00,weatherlink.com 1.10,2013-02-18 10:34:00,
2013-02-18 06:04:00,19.8,12.0,30.11,SE,133,6.0,10.0,72,0.00,,,0.00,weatherlink.com 1.10,2013-02-18 11:04:00,
2013-02-18 06:19:00,19.8,12.0,30.11,SSE,156,3.0,10.0,72,0.00,,,0.00,weatherlink.com 1.10,2013-02-18 11:19:00,
2013-02-18 06:34:00,20.0,12.0,30.10,SE,138,2.0,11.0,72,0.00,,,0.00,weatherlink.com 1.10,2013-02-18 11:34:00,
2013-02-18 06:49:00,20.3,13.0,30.09,SW,215,3.0,11.0,73,0.00,,,0.00,weatherlink.com 1.10,2013-02-18 11:49:00,
2013-02-18 07:04:00,20.5,13.0,30.08,South,175,2.0,9.0,73,0.00,,,0.00,weatherlink.com 1.10,2013-02-18 12:04:00,
2013-02-18 07:19:00,20.8,13.0,30.07,SE,124,9.0,12.0,73,0.00,,,0.00,weatherlink.com 1.10,2013-02-18 12:19:00,
2013-02-18 07:34:00,21.1,14.0,30.06,West,278,10.0,13.0,73,0.00,,,0.00,weatherlink.com 1.10,2013-02-18 12:34:00,
2013-02-18 07:49:00,21.5,14.0,30.05,WSW,240,4.0,14.0,73,0.00,,,0.00,weatherlink.com 1.10,2013-02-18 12:49:00,
2013-02-18 08:04:00,22.0,15.0,30.05,West,278,3.0,13.0,73,0.00,,,0.00,weatherlink.com 1.10,2013-02-18 13:04:00,
2013-02-18 08:19:00,22.3,15.0,30.04,SW,215,9.0,10.0,72,0.00,,,0.00,weatherlink.com 1.10,2013-02-18 13:19:00,
2013-02-18 08:35:00,23.1,15.0,30.02,NNW,328,4.0,11.0,71,0.00,,,0.00,weatherlink.com 1.10,2013-02-18 13:35:00,
2013-02-18 08:50:00,24.3,15.0,30.02,SSW,198,5.0,20.0,69,0.00,,,0.00,weatherlink.com 1.10,2013-02-18 13:50:00,
2013-02-18 09:05:00,24.8,15.0,30.01,South,170,2.0,14.0,67,0.00,,,0.00,weatherlink.com 1.10,2013-02-18 14:05:00,
2013-02-18 09:20:00,25.3,15.0,30.00,SSE,158,3.0,17.0,66,0.00,,,0.00,weatherlink.com 1.10,2013-02-18 14:20:00,
2013-02-18 09:35:00,26.7,16.0,30.00,SSW,208,6.0,12.0,64,0.00,,,0.00,weatherlink.com 1.10,2013-02-18 14:35:00,
2013-02-18 09:50:00,27.7,16.0,29.98,South,172,7.0,15.0,62,0.00,,,0.00,weatherlink.com 1.10,2013-02-18 14:50:00,
2013-02-18 10:05:00,29.0,17.0,29.97,WSW,252,5.0,10.0,62,0.00,,,0.00,weatherlink.com 1.10,2013-02-18 15:05:00,
2013-02-18 10:20:00,29.8,17.0,29.97,SE,137,4.0,17.0,60,0.00,,,0.00,weatherlink.com 1.10,2013-02-18 15:20:00,
2013-02-18 10:35:00,30.2,18.0,29.96,SSW,195,9.0,14.0,61,0.00,,,0.00,weatherlink.com 1.10,2013-02-18 15:35:00,
2013-02-18 10:50:00,31.4,19.0,29.95,SSW,208,7.0,15.0,60,0.00,,,0.00,weatherlink.com 1.10,2013-02-18 15:50:00,
2013-02-18 11:05:00,32.7,20.0,29.94,ENE,67,4.0,16.0,59,0.00,,,0.00,weatherlink.com 1.10,2013-02-18 16:05:00,
2013-02-18 11:20:00,33.2,20.0,29.93,WSW,240,4.0,18.0,58,0.00,,,0.00,weatherlink.com 1.10,2013-02-18 16:20:00,
2013-02-18 11:35:00,33.7,20.0,29.93,WSW,243,3.0,13.0,57,0.00,,,0.00,weatherlink.com 1.10,2013-02-18 16:35:00,
2013-02-18 11:50:00,35.1,21.0,29.92,South,191,6.0,15.0,56,0.00,,,0.00,weatherlink.com 1.10,2013-02-18 16:50:00,
2013-02-18 12:05:00,35.9,21.0,29.91,WSW,247,4.0,17.0,55,0.00,,,0.00,weatherlink.com 1.10,2013-02-18 17:05:00,
2013-02-18 12:20:00,37.0,21.0,29.90,WSW,238,3.0,15.0,53,0.00,,,0.00,weatherlink.com 1.10,2013-02-18 17:20:00,
2013-02-18 12:35:00,37.4,22.0,29.89,NE,39,8.0,16.0,53,0.00,,,0.00,weatherlink.com 1.10,2013-02-18 17:35:00,
2013-02-18 12:51:00,38.5,23.0,29.87,SSW,213,10.0,20.0,53,0.00,,,0.00,weatherlink.com 1.10,2013-02-18 17:51:00,
2013-02-18 13:06:00,40.2,23.0,29.86,SSW,197,8.0,12.0,51,0.00,,,0.00,weatherlink.com 1.10,2013-02-18 18:06:00,
2013-02-18 13:21:00,41.2,24.0,29.86,WSW,243,5.0,13.0,50,0.00,,,0.00,weatherlink.com 1.10,2013-02-18 18:21:00,
2013-02-18 13:36:00,41.1,24.0,29.85,South,187,3.0,12.0,51,0.00,,,0.00,weatherlink.com 1.10,2013-02-18 18:36:00,
2013-02-18 13:51:00,40.4,24.0,29.84,West,269,10.0,12.0,52,0.00,,,0.00,weatherlink.com 1.10,2013-02-18 18:51:00,
2013-02-18 14:06:00,40.5,24.0,29.84,SW,214,1.0,11.0,53,0.00,,,0.00,weatherlink.com 1.10,2013-02-18 19:06:00,
2013-02-18 14:21:00,41.0,24.0,29.82,WSW,240,4.0,11.0,52,0.00,,,0.00,weatherlink.com 1.10,2013-02-18 19:21:00,
2013-02-18 14:36:00,39.8,25.0,29.81,SSW,205,2.0,15.0,55,0.00,,,0.00,weatherlink.com 1.10,2013-02-18 19:36:00,
2013-02-18 14:51:00,40.0,25.0,29.80,SE,146,3.0,15.0,55,0.00,,,0.00,weatherlink.com 1.10,2013-02-18 19:51:00,
2013-02-18 15:06:00,39.6,24.0,29.80,ENE,60,5.0,20.0,55,0.00,,,0.00,weatherlink.com 1.10,2013-02-18 20:06:00,
2013-02-18 15:21:00,39.0,25.0,29.80,SSE,158,4.0,11.0,57,0.00,,,0.00,weatherlink.com 1.10,2013-02-18 20:21:00,
2013-02-18 15:36:00,38.9,25.0,29.80,SSW,211,3.0,11.0,58,0.00,,,0.00,weatherlink.com 1.10,2013-02-18 20:36:00,
2013-02-18 15:51:00,38.3,25.0,29.79,West,278,2.0,9.0,60,0.00,,,0.00,weatherlink.com 1.10,2013-02-18 20:51:00,
2013-02-18 16:06:00,38.7,25.0,29.78,WSW,243,7.0,15.0,59,0.00,,,0.00,weatherlink.com 1.10,2013-02-18 21:06:00,
2013-02-18 16:21:00,38.3,25.0,29.77,East,87,3.0,10.0,59,0.00,,,0.00,weatherlink.com 1.10,2013-02-18 21:21:00,
2013-02-18 16:36:00,37.7,25.0,29.77,SE,144,3.0,10.0,61,0.00,,,0.00,weatherlink.com 1.10,2013-02-18 21:36:00,
2013-02-18 16:51:00,38.0,26.0,29.77,SSE,150,2.0,6.0,62,0.00,,,0.00,weatherlink.com 1.10,2013-02-18 21:51:00,
2013-02-18 17:06:00,37.8,26.0,29.77,SSW,212,3.0,7.0,63,0.00,,,0.00,weatherlink.com 1.10,2013-02-18 22:06:00,
2013-02-18 17:21:00,37.2,26.0,29.76,SSE,162,1.0,6.0,65,0.00,,,0.00,weatherlink.com 1.10,2013-02-18 22:21:00,
2013-02-18 17:36:00,36.7,27.0,29.75,SSE,167,1.0,7.0,67,0.00,,,0.00,weatherlink.com 1.10,2013-02-18 22:36:00,
2013-02-18 17:51:00,36.3,28.0,29.75,East,94,1.0,7.0,71,0.00,,,0.00,weatherlink.com 1.10,2013-02-18 22:51:00,
2013-02-18 18:06:00,36.0,28.0,29.74,NE,40,2.0,7.0,72,0.00,,,0.00,weatherlink.com 1.10,2013-02-18 23:06:00,
2013-02-18 18:21:00,35.8,29.0,29.73,North,351,1.0,5.0,75,0.00,,,0.00,weatherlink.com 1.10,2013-02-18 23:21:00,
2013-02-18 18:36:00,35.5,30.0,29.73,NE,53,1.0,4.0,79,0.00,,,0.00,weatherlink.com 1.10,2013-02-18 23:36:00,
2013-02-18 18:51:00,35.5,30.0,29.72,West,259,1.0,4.0,79,0.00,,,0.00,weatherlink.com 1.10,2013-02-18 23:51:00,
2013-02-18 19:06:00,34.9,30.0,29.71,WSW,253,2.0,6.0,81,0.00,,,0.00,weatherlink.com 1.10,2013-02-19 00:06:00,
2013-02-18 19:21:00,34.6,29.0,29.71,South,176,2.0,5.0,81,0.00,,,0.00,weatherlink.com 1.10,2013-02-19 00:21:00,
2013-02-18 19:37:00,34.6,30.0,29.70,West,267,2.0,6.0,82,0.00,,,0.00,weatherlink.com 1.10,2013-02-19 00:37:00,
2013-02-18 19:52:00,34.5,30.0,29.69,SSW,200,1.0,6.0,82,0.00,,,0.00,weatherlink.com 1.10,2013-02-19 00:52:00,
2013-02-18 20:07:00,34.6,30.0,29.68,North,357,4.0,7.0,82,0.00,,,0.00,weatherlink.com 1.10,2013-02-19 01:07:00,
2013-02-18 20:37:00,35.4,30.0,29.66,East,96,3.0,7.0,82,0.00,,,0.00,weatherlink.com 1.10,2013-02-19 01:37:00,
2013-02-18 20:52:00,36.9,31.0,29.65,SSE,165,3.0,7.0,80,0.00,,,0.00,weatherlink.com 1.10,2013-02-19 01:52:00,
2013-02-18 21:07:00,38.3,32.0,29.63,East,82,3.0,9.0,79,0.00,,,0.00,weatherlink.com 1.10,2013-02-19 02:07:00,
2013-02-18 21:22:00,37.9,32.0,29.62,SE,132,0.0,5.0,80,0.00,,,0.00,weatherlink.com 1.10,2013-02-19 02:22:00,
2013-02-18 21:37:00,38.7,33.0,29.62,SSW,212,3.0,6.0,81,0.00,,,0.00,weatherlink.com 1.10,2013-02-19 02:37:00,
2013-02-18 21:52:00,39.5,34.0,29.61,SSW,207,3.0,5.0,82,0.00,,,0.00,weatherlink.com 1.10,2013-02-19 02:52:00,
2013-02-18 22:07:00,41.6,37.0,29.60,SSW,212,5.0,9.0,83,0.00,,,0.00,weatherlink.com 1.10,2013-02-19 03:07:00,
2013-02-18 22:22:00,43.6,38.0,29.60,SW,232,2.0,13.0,80,0.00,,,0.00,weatherlink.com 1.10,2013-02-19 03:22:00,
2013-02-18 22:37:00,42.7,38.0,29.59,SW,232,9.0,10.0,82,0.01,,,0.01,weatherlink.com 1.10,2013-02-19 03:37:00,
2013-02-18 22:52:00,42.3,37.0,29.57,SSE,152,5.0,13.0,82,0.01,,,0.01,weatherlink.com 1.10,2013-02-19 03:52:00,
2013-02-18 23:07:00,42.3,37.0,29.57,SSW,210,6.0,12.0,82,0.01,,,0.01,weatherlink.com 1.10,2013-02-19 04:07:00,
2013-02-18 23:23:00,42.2,37.0,29.55,SSW,211,7.0,11.0,83,0.02,,,0.02,weatherlink.com 1.10,2013-02-19 04:23:00,
2013-02-18 23:37:00,42.5,37.0,29.54,ESE,108,1.0,12.0,82,0.01,,,0.02,weatherlink.com 1.10,2013-02-19 04:37:00,
2013-02-18 23:52:00,42.7,37.0,29.53,SSW,203,3.0,10.0,81,0.01,,,0.02,weatherlink.com 1.10,2013-02-19 04:52:00,